Tiempo atmosférico en la estación meteorológica de Moià, Barcelona (735 m.)



Fecha
DESCASC
Temp. máxima en grados centígrados (hora)
DESCASC
Temp. mínima en grados centígrados (hora)
DESCASC
Temp. media en grados centígrados
DESCASC
Racha de viento máxima en m/sg (hora)
DESCASC
Velocidad máxima media en intervalos de 10 minutos(hora)
DESCASC
Precipitaciones diarias en mm
DESCASC
Precipitaciones de 00:00 a 06:00 en mm
DESCASC
Precipitaciones de 06:00 a 12:00 en mm
DESCASC
Precipitaciones de 12:00 a 18:00 en mm
DESCASC
Precipitaciones de 18:00 a 24:00 en mm
DESCASC
06-08-2019 31.7 (16:20) 19.7 (00:00) 25.7 5.83 (11:30) 3.33 (12:50) 0 0 0 0 0
24-07-2019 32.9 (15:10) 20.5 (00:00) 26.7 6.39 (17:10) 3.33 (17:40) 0 0 0 0 0
19-07-2019 26 (14:10) 15.9 (00:00) 20.9 7.5 (17:20) 3.61 (15:40) 0 0 0 0 0
21-07-2019 30.9 (14:30) 18.5 (00:00) 24.7 6.67 (14:10) 3.61 (16:30) 0 0 0 0 0
07-08-2019 28.1 (14:20) 19.6 (00:00) 23.9 7.5 (16:00) 3.89 (16:00) 0 0 0 0 0
25-07-2019 31.5 (14:00) 19 (00:00) 25.3 7.5 (17:20) 3.89 (14:50) 0 0 0 0 0
05-08-2019 31.4 (14:30) 18.8 (00:00) 25.1 7.78 (17:50) 3.89 (14:00) 0 0 0 0 0
28-07-2019 25.9 (16:00) 11.8 (00:00) 18.8 7.5 (18:40) 3.89 (17:10) 0 0 0 0 0
01-08-2019 28.9 (15:50) 17.7 (00:00) 23.3 7.5 (17:20) 3.89 (17:20) 0 0 0 0 0
31-07-2019 26.3 (14:30) 16.1 (00:00) 21.2 8.06 (15:30) 3.89 (15:20) 0 0 0 0 0
16-08-2019 27.2 (17:40) 18 (00:00) 22.6 8.06 (12:10) 4.17 (12:10) 0 0 0 0 0
14-08-2019 27 (16:10) 14.3 (00:00) 20.7 8.89 (14:00) 4.17 (14:10) 0 0 0 0 0
03-08-2019 30.8 (14:20) 16.6 (00:00) 23.7 8.06 (17:30) 4.17 (18:10) 0 0 0 0 0
23-07-2019 34.1 (14:00) 20.6 (00:00) 27.3 7.5 (18:50) 4.17 (16:10) 0 0 0 0 0
22-07-2019 33.1 (14:20) 19.5 (00:00) 26.3 7.78 (15:50) 4.17 (15:50) 0 0 0 0 0
30-07-2019 25.3 (15:10) 19.1 (00:00) 22.2 8.06 (17:10) 4.17 (15:20) 0 0 0 0 0
02-08-2019 30.6 (15:10) 16.9 (00:00) 23.8 9.44 (17:20) 4.44 (15:00) 0 0 0 0 0
04-08-2019 31.3 (14:10) 18.4 (00:00) 24.8 7.78 (15:10) 4.44 (17:20) 0 0 0 0 0
20-07-2019 30.4 (14:20) 15.9 (00:00) 23.1 8.33 (16:40) 4.44 (17:00) 0 0 0 0 0
11-08-2019 31.2 (16:50) 18.4 (00:00) 24.8 8.33 (12:20) 4.44 (12:50) 0 0 0 0 0
15-08-2019 27.7 (15:40) 16.1 (00:00) 21.9 8.89 (16:00) 4.72 (15:40) 1 0 0 0 1
12-08-2019 25.8 (16:50) 17.4 (00:00) 21.6 8.89 (16:40) 4.72 (15:00) 0.4 0.4 0 0 0
18-07-2019 26.7 (15:30) 14.3 (00:00) 20.5 8.33 (16:10) 5 (15:00) 0 0 0 0 0
10-08-2019 31.5 (14:50) 20.4 (00:00) 25.9 9.44 (14:00) 5 (13:20) 0 0 0 0 0
08-08-2019 31.3 (15:40) 19.6 (00:00) 25.4 9.17 (14:00) 5.28 (14:00) 0 0 0 0 0
13-08-2019 24 (15:00) 12.8 (00:00) 18.4 9.72 (15:30) 5.28 (13:50) 0 0 0 0 0
29-07-2019 28.9 (16:10) 14.1 (00:00) 21.5 9.17 (15:50) 5.28 (15:30) 0 0 0 0 0
09-08-2019 35 (15:40) 20.3 (00:00) 27.6 11.11 (14:10) 5.83 (14:30) 0 0 0 0 0
26-07-2019 30.1 (14:00) 18.6 (00:00) 24.4 9.44 (17:30) 6.11 (17:30) 0 0 0 0 0
27-07-2019 22.7 (18:00) 17.6 (00:00) 20.2 10.28 (19:40) 6.11 (18:00) 4.4 0 0.4 4 0

Gráficas

Temp. máximas Temp. mínimas Temp. medias Precipitaciones Rachas de viento máximas Velocidades máximas media en intervalos de 10 minutos

Datos horarios

Fecha y hora oficial Temperatura (ºC) Velocidad del viento (km/h) Dirección del viento Racha (km/h) Dirección de racha Precipitación (mm) Presión (hPa) Tendencia (hPa) Humedad (%)
2019-08-16 23:00:00 20.6 6 Nordeste 12 Este 0 -- -- 80
2019-08-16 22:00:00 21.6 5 Este 14 Nordeste 0 -- -- 79
2019-08-16 21:00:00 23 6 Sudeste 15 Sur 0 -- -- 76
2019-08-16 20:00:00 24.4 9 Sudeste 19 Sudoeste 0 -- -- 74
2019-08-16 19:00:00 26 9 Sudoeste 22 Sur 0 -- -- 64
2019-08-16 18:00:00 26.5 11 Sudoeste 27 Sudoeste 0 -- -- 63
2019-08-16 17:00:00 26.8 11 Sudoeste 25 Oeste 0 -- -- 58
2019-08-16 16:00:00 25.9 7 Sudoeste 26 Sudoeste 0 -- -- 62
2019-08-16 15:00:00 24.5 6 Sudoeste 20 Sudoeste 0 -- -- 68
2019-08-16 14:00:00 24.6 12 Sudoeste 27 Sudoeste 0 -- -- 66
2019-08-16 13:00:00 23.9 14 Sudoeste 29 Sudoeste 0 -- -- 69
2019-08-16 12:00:00 22.9 12 Oeste 24 Oeste 0 -- -- 70
2019-08-16 11:00:00 21.5 7 Oeste 20 Sudoeste 0 -- -- 79
2019-08-16 10:00:00 20.7 10 Oeste 19 Oeste 0 -- -- 85
2019-08-16 09:00:00 19.5 8 Oeste 14 Oeste 0 -- -- 92
2019-08-16 08:00:00 18.5 4 Sudoeste 10 Sudoeste 0 -- -- 95
2019-08-16 07:00:00 18.4 3 Sudoeste 12 Sudoeste 0 -- -- 94
2019-08-16 06:00:00 18.4 5 Oeste 11 Sudoeste 0 -- -- 94
2019-08-16 05:00:00 18.2 0 Calma 6 Este 0 -- -- 94
2019-08-16 04:00:00 18.1 3 Este 6 Este 0 -- -- 94
2019-08-16 03:00:00 18 2 Este 8 Sudeste 0 -- -- 93
2019-08-16 02:00:00 18 4 Sudeste 9 Sur 0 -- -- 93
2019-08-16 01:00:00 18.1 3 Sudeste 10 Este 0 -- -- 94
2019-08-16 00:00:00 18.2 6 Este 12 Sudeste 0 -- -- 93
2019-08-15 23:00:00 18.7 8 Sur 21 Oeste 1 -- -- 93
2019-08-15 22:00:00 19 6 Sur 18 Sudeste 0 -- -- 91
2019-08-15 21:00:00 19.6 11 Sudeste 22 Sur 0 -- -- 89
2019-08-15 20:00:00 20.8 9 Sur 23 Sur 0 -- -- 86
2019-08-15 19:00:00 22.8 13 Sudeste 32 Sudeste 0 -- -- 78
2019-08-15 18:00:00 24.2 14 Sudeste 30 Sudeste 0 -- -- 71
2019-08-15 17:00:00 25.8 13 Sur 28 Sudoeste 0 -- -- 65
2019-08-15 16:00:00 27.2 15 Sudoeste 32 Sudoeste 0 -- -- 47
2019-08-15 15:00:00 27.2 15 Oeste 30 Oeste 0 -- -- 46
2019-08-15 14:00:00 27.5 8 Oeste 27 Sudoeste 0 -- -- 47
2019-08-15 13:00:00 25.6 10 Sudoeste 23 Sudoeste 0 -- -- 54
2019-08-15 12:00:00 24.4 7 Oeste 17 Oeste 0 -- -- 62
2019-08-15 11:00:00 22.4 8 Oeste 20 Oeste 0 -- -- 68
2019-08-15 10:00:00 20 8 Oeste 15 Oeste 0 -- -- 82
2019-08-15 09:00:00 17.9 0 Calma 5 Sudeste 0 -- -- 85
2019-08-15 08:00:00 17 0 Calma 5 Oeste 0 -- -- 87
2019-08-15 07:00:00 16.8 2 Norte 8 Noroeste 0 -- -- 94
2019-08-15 06:00:00 16.4 3 Oeste 4 Norte 0 -- -- 93
2019-08-15 05:00:00 16.2 0 Calma 5 Norte 0 -- -- 91
2019-08-15 04:00:00 16.2 2 Norte 5 Norte 0 -- -- 88
2019-08-15 03:00:00 16.4 0 Calma 7 Oeste 0 -- -- 87
2019-08-15 02:00:00 17.3 4 Norte 7 Norte 0 -- -- 87
2019-08-15 01:00:00 17.9 2 Nordeste 6 Norte 0 -- -- 87
2019-08-15 00:00:00 18.3 4 Nordeste 8 Nordeste 0 -- -- 85
2019-08-14 23:00:00 18.6 6 Nordeste 11 Este 0 -- -- 82
2019-08-14 22:00:00 19 4 Este 12 Este 0 -- -- 78
2019-08-14 21:00:00 20 7 Sudeste 18 Sudeste 0 -- -- 77
2019-08-14 20:00:00 21.6 9 Sudeste 17 Sudeste 0 -- -- 71
2019-08-14 19:00:00 22.8 8 Sur 21 Sudeste 0 -- -- 65
2019-08-14 18:00:00 23.7 10 Sudeste 24 Sur 0 -- -- 62
2019-08-14 17:00:00 24.9 10 Sudeste 24 Oeste 0 -- -- 55
2019-08-14 16:00:00 26.7 13 Oeste 25 Sudoeste 0 -- -- 32
2019-08-14 15:00:00 25.6 13 Oeste 29 Oeste 0 -- -- 35
2019-08-14 14:00:00 24.2 14 Oeste 32 Oeste 0 -- -- 40
2019-08-14 13:00:00 22.7 9 Sudoeste 20 Sudoeste 0 -- -- 43
2019-08-14 12:00:00 21.9 10 Oeste 21 Oeste 0 -- -- 49
2019-08-14 11:00:00 20.5 9 Oeste 17 Oeste 0 -- -- 57
2019-08-14 10:00:00 18.5 5 Oeste 11 Oeste 0 -- -- 61
2019-08-14 09:00:00 16.5 5 Oeste 10 Oeste 0 -- -- 76
2019-08-14 08:00:00 14.4 0 Calma 3 Este 0 -- -- 95
2019-08-14 07:00:00 14.9 0 Calma 6 Este 0 -- -- 95
2019-08-14 06:00:00 15.6 0 Calma 7 Este 0 -- -- 95
2019-08-14 05:00:00 15.8 3 Este 7 Sudeste 0 -- -- 94
2019-08-14 04:00:00 15.6 4 Nordeste 8 Nordeste 0 -- -- 92
2019-08-14 03:00:00 15.9 4 Nordeste 8 Nordeste 0 -- -- 89
2019-08-14 02:00:00 16.3 4 Nordeste 10 Nordeste 0 -- -- 87
2019-08-14 01:00:00 16.7 5 Nordeste 10 Este 0 -- -- 83
2019-08-14 00:00:00 17.2 4 Nordeste 9 Nordeste -- -- -- 79
2019-08-13 23:00:00 17.8 4 Este 8 Nordeste 0 -- -- 75
2019-08-13 22:00:00 18.9 2 Nordeste 10 Sudeste 0 -- -- 69
2019-08-13 21:00:00 20.4 2 Sur 15 Sudoeste 0 -- -- 62
2019-08-13 20:00:00 22.7 9 Sudoeste 21 Oeste 0 -- -- 34
2019-08-13 19:00:00 23.3 11 Sudoeste 24 Sudoeste 0 -- -- 30
2019-08-13 18:00:00 23.7 12 Oeste 27 Oeste 0 -- -- 29
2019-08-13 17:00:00 23.8 15 Oeste 32 Oeste 0 -- -- 29
2019-08-13 16:00:00 23.7 18 Oeste 35 Oeste 0 -- -- 31
2019-08-13 15:00:00 24 17 Oeste 32 Noroeste 0 -- -- 33
2019-08-13 14:00:00 21.9 17 Sudoeste 33 Sudoeste 0 -- -- 42
2019-08-13 13:00:00 21.5 10 Oeste 25 Sudoeste 0 -- -- 48
2019-08-13 12:00:00 19.6 10 Oeste 18 Oeste 0 -- -- 54
2019-08-13 11:00:00 16.8 6 Sudoeste 15 Oeste 0 -- -- 63
2019-08-13 10:00:00 14.5 8 Oeste 17 Oeste 0 -- -- 72
2019-08-13 09:00:00 14 5 Oeste 16 Sudoeste 0 -- -- 75
2019-08-13 08:00:00 13.4 4 Oeste 13 Oeste 0 -- -- 75
2019-08-13 07:00:00 12.8 4 Oeste 13 Oeste 0 -- -- 75
2019-08-13 06:00:00 12.8 4 Norte 8 Norte 0 -- -- 74
2019-08-13 05:00:00 13.6 3 Norte 15 Noroeste 0 -- -- 70
2019-08-13 04:00:00 14.5 8 Noroeste 16 Noroeste 0 -- -- 66
2019-08-13 03:00:00 15.5 7 Noroeste 14 Oeste 0 -- -- 75
2019-08-13 02:00:00 16.9 4 Noroeste 14 Oeste 0 -- -- 92
2019-08-13 01:00:00 17.1 7 Oeste 12 Oeste 0 -- -- 91
2019-08-13 00:00:00 17.4 3 Nordeste 9 Nordeste 0 -- -- 91
2019-08-12 23:00:00 18 3 Este 9 Sudeste 0 -- -- 89
2019-08-12 22:00:00 18.6 6 Sudeste 19 Este 0 -- -- 87
2019-08-12 21:00:00 19.3 10 Sudeste 22 Sudeste 0 -- -- 84
2019-08-12 20:00:00 20.6 8 Sur 23 Sur 0 -- -- 78
2019-08-12 19:00:00 21.8 11 Sur 29 Sudeste 0 -- -- 74
2019-08-12 18:00:00 25.2 13 Oeste 27 Sudoeste 0 -- -- 50
2019-08-12 17:00:00 25.5 15 Oeste 32 Oeste 0 -- -- 45
2019-08-12 16:00:00 25.3 9 Oeste 30 Oeste 0 -- -- 48
2019-08-12 15:00:00 24.2 17 Oeste 28 Oeste 0 -- -- 48
2019-08-12 14:00:00 23.4 13 Oeste 24 Oeste 0 -- -- 62
2019-08-12 13:00:00 21.8 7 Oeste 15 Sudoeste 0 -- -- 74
2019-08-12 12:00:00 19.6 8 Oeste 15 Oeste 0 -- -- 78
2019-08-12 11:00:00 18.3 10 Oeste 18 Oeste 0 -- -- 86
2019-08-12 10:00:00 18 8 Oeste 18 Oeste 0 -- -- 94
2019-08-12 09:00:00 18.6 5 Sudoeste 9 Sudoeste 0 -- -- 92
2019-08-12 08:00:00 18.1 4 Noroeste 8 Noroeste 0 -- -- 94
2019-08-12 07:00:00 18 3 Nordeste 18 Sudoeste 0 -- -- 95
2019-08-12 06:00:00 18 2 Este 16 Oeste 0 -- -- 94
2019-08-12 05:00:00 18.5 4 Noroeste 15 Este 0.2 -- -- 91
2019-08-12 04:00:00 19 5 Este 21 Oeste 0.2 -- -- 88
2019-08-12 03:00:00 19.6 3 Este 8 Este 0 -- -- 87
2019-08-12 02:00:00 19.3 3 Nordeste 10 Sudeste 0 -- -- 89
2019-08-12 01:00:00 19.4 4 Sudeste 12 Sudeste 0 -- -- 88
2019-08-12 00:00:00 20 5 Sudeste 13 Sudeste 0 -- -- 88
2019-08-11 23:00:00 20.5 6 Este 18 Sudeste 0 -- -- 88
2019-08-11 22:00:00 21.7 9 Sudeste 21 Sudeste 0 -- -- 83
2019-08-11 21:00:00 23.6 9 Sudeste 22 Sudeste 0 -- -- 77
2019-08-11 20:00:00 25.9 10 Sudeste 19 Sudeste 0 -- -- 67
2019-08-11 19:00:00 27.6 10 Oeste 23 Oeste 0 -- -- 47
2019-08-11 18:00:00 28.7 10 Sur 23 Sudeste 0 -- -- 54
2019-08-11 17:00:00 30.8 13 Sudoeste 27 Oeste 0 -- -- 41
2019-08-11 16:00:00 30.6 12 Oeste 29 Oeste 0 -- -- 42
2019-08-11 15:00:00 30.1 12 Oeste 26 Oeste 0 -- -- 44
2019-08-11 14:00:00 29.1 5 Oeste 23 Oeste 0 -- -- 49
2019-08-11 13:00:00 27.4 14 Oeste 30 Oeste 0 -- -- 52
2019-08-11 12:00:00 27 12 Oeste 24 Oeste 0 -- -- 54
2019-08-11 11:00:00 25.7 6 Sur 17 Sur 0 -- -- 55
2019-08-11 10:00:00 24.6 10 Sur 23 Sur 0 -- -- 58
2019-08-11 09:00:00 23.7 5 Este 9 Sudeste 0 -- -- 63
2019-08-11 08:00:00 19.9 3 Nordeste 8 Este 0 -- -- 79
2019-08-11 07:00:00 18.5 2 Nordeste 5 Norte 0 -- -- 85
2019-08-11 06:00:00 18.5 0 Calma 6 Norte 0 -- -- 86
2019-08-11 05:00:00 18.7 0 Calma 6 Norte 0 -- -- 88
2019-08-11 04:00:00 19.2 0 Calma 4 Nordeste 0 -- -- 87
2019-08-11 03:00:00 19.6 0 Calma 5 Este 0 -- -- 87
2019-08-11 02:00:00 19.9 0 Calma 4 Norte 0 -- -- 87
2019-08-11 01:00:00 20.2 3 Norte 5 Sudeste 0 -- -- 89
2019-08-11 00:00:00 20.7 4 Sudeste 8 Sudeste -- -- -- 87
2019-08-10 23:00:00 21.7 4 Sudeste 11 Sudeste 0 -- -- 80
2019-08-10 22:00:00 22.7 7 Este 16 Sudeste 0 -- -- 76
2019-08-10 21:00:00 23.7 8 Sudeste 18 Sudeste 0 -- -- 71
2019-08-10 20:00:00 26.2 8 Sudeste 21 Sudeste 0 -- -- 64
2019-08-10 19:00:00 27.9 9 Sudeste 23 Sudeste 0 -- -- 59
2019-08-10 18:00:00 29 12 Sur 23 Sur 0 -- -- 55
2019-08-10 17:00:00 29.4 12 Sur 26 Sur 0 -- -- 57
2019-08-10 16:00:00 30.2 13 Sudoeste 30 Sudoeste 0 -- -- 53
2019-08-10 15:00:00 31.1 12 Sudoeste 29 Sudoeste 0 -- -- 39
2019-08-10 14:00:00 30.3 17 Oeste 34 Oeste 0 -- -- 40
2019-08-10 13:00:00 29.3 16 Oeste 29 Sudoeste 0 -- -- 43
2019-08-10 12:00:00 28.6 11 Oeste 23 Oeste 0 -- -- 49
2019-08-10 11:00:00 26.6 11 Oeste 22 Oeste 0 -- -- 54
2019-08-10 10:00:00 25.9 5 Oeste 12 Sudoeste 0 -- -- 59
2019-08-10 09:00:00 24 0 Calma 7 Este 0 -- -- 60
2019-08-10 08:00:00 22.1 0 Calma 4 Sudoeste 0 -- -- 66
2019-08-10 07:00:00 20.6 0 Calma 5 Noroeste 0 -- -- 70
2019-08-10 06:00:00 21.6 0 Calma 6 Noroeste 0 -- -- 66
2019-08-10 05:00:00 22.6 0 Calma 10 Oeste 0 -- -- 61
2019-08-10 04:00:00 24.4 6 Oeste 12 Oeste 0 -- -- 53
2019-08-10 03:00:00 23.8 4 Oeste 8 Oeste 0 -- -- 50
2019-08-10 02:00:00 24.1 2 Oeste 6 Oeste 0 -- -- 46
2019-08-10 01:00:00 24.8 0 Calma 8 Norte 0 -- -- 46
2019-08-10 00:00:00 25.2 4 Nordeste 9 Norte 0 -- -- 50
2019-08-09 23:00:00 25.6 5 Nordeste 10 Nordeste 0 -- -- 55
2019-08-09 22:00:00 26.2 6 Nordeste 11 Sudeste 0 -- -- 63
2019-08-09 21:00:00 27.7 7 Sudeste 15 Sur 0 -- -- 62
2019-08-09 20:00:00 29.9 9 Sudoeste 26 Sudoeste 0 -- -- 54
2019-08-09 19:00:00 31.1 15 Sudoeste 27 Sudoeste 0 -- -- 52
2019-08-09 18:00:00 32.3 13 Sudoeste 33 Oeste 0 -- -- 48
2019-08-09 17:00:00 34.6 18 Oeste 37 Oeste 0 -- -- 25
2019-08-09 16:00:00 34.7 17 Oeste 37 Oeste 0 -- -- 24
2019-08-09 15:00:00 34.6 18 Oeste 40 Oeste 0 -- -- 26
2019-08-09 14:00:00 33.6 21 Oeste 33 Oeste 0 -- -- 29
2019-08-09 13:00:00 33 15 Oeste 30 Oeste 0 -- -- 33
2019-08-09 12:00:00 31.6 12 Oeste 24 Oeste 0 -- -- 37
2019-08-09 11:00:00 29.7 9 Oeste 18 Sudoeste 0 -- -- 38
2019-08-09 10:00:00 27.7 5 Sudoeste 12 Oeste 0 -- -- 39
2019-08-09 09:00:00 26.3 3 Sudeste 6 Sudeste 0 -- -- 48
2019-08-09 08:00:00 22.8 0 Calma 5 Nordeste 0 -- -- 61
2019-08-09 07:00:00 20.3 3 Norte 5 Norte 0 -- -- 66
2019-08-09 06:00:00 20.4 2 Nordeste 5 Norte 0 -- -- 67
2019-08-09 05:00:00 20.8 0 Calma 6 Norte 0 -- -- 65
2019-08-09 04:00:00 21.2 2 Norte 6 Norte 0 -- -- 65
2019-08-09 03:00:00 21.4 4 Noroeste 5 Noroeste 0 -- -- 65
2019-08-09 02:00:00 21.4 0 Calma 6 Nordeste 0 -- -- 66
2019-08-09 01:00:00 21.6 4 Norte 7 Nordeste 0 -- -- 68
2019-08-09 00:00:00 22.7 4 Nordeste 8 Norte 0 -- -- 67
2019-08-08 23:00:00 23.2 4 Nordeste 8 Nordeste 0 -- -- 67
2019-08-08 22:00:00 24.3 3 Este 13 Este 0 -- -- 66
2019-08-08 21:00:00 25.2 7 Este 21 Sudeste 0 -- -- 66
2019-08-08 20:00:00 26.6 9 Sur 23 Sudeste 0 -- -- 63
2019-08-08 19:00:00 28 11 Sur 28 Sur 0 -- -- 62
2019-08-08 18:00:00 28.7 12 Sur 26 Sur 0 -- -- 61
2019-08-08 17:00:00 28.6 10 Sur 30 Sudeste 0 -- -- 62
2019-08-08 16:00:00 30.8 10 Sur 29 Sudoeste 0 -- -- 51
2019-08-08 15:00:00 30.4 12 Sudoeste 33 Oeste 0 -- -- 39
2019-08-08 14:00:00 30 19 Sudoeste 33 Oeste 0 -- -- 44
2019-08-08 13:00:00 29.5 13 Oeste 25 Oeste 0 -- -- 44
2019-08-08 12:00:00 28.3 11 Oeste 22 Oeste 0 -- -- 46
2019-08-08 11:00:00 26.7 9 Oeste 18 Oeste 0 -- -- 52
2019-08-08 10:00:00 25.2 7 Oeste 14 Oeste 0 -- -- 62
2019-08-08 09:00:00 23.3 5 Oeste 11 Oeste 0 -- -- 74
2019-08-08 08:00:00 21 0 Calma 5 Noroeste 0 -- -- 88
2019-08-08 07:00:00 19.7 2 Norte 8 Noroeste 0 -- -- 90
2019-08-08 06:00:00 19.6 2 Norte 6 Norte 0 -- -- 92
2019-08-08 05:00:00 20.1 3 Norte 6 Noroeste 0 -- -- 93
2019-08-08 04:00:00 20.6 0 Calma 7 Norte 0 -- -- 93
2019-08-08 03:00:00 20.8 0 Calma 10 Sudoeste 0 -- -- 93
2019-08-08 02:00:00 20.8 2 Este 5 Nordeste 0 -- -- 93
2019-08-08 01:00:00 20.7 3 Este 8 Sudeste 0 -- -- 93
2019-08-08 00:00:00 20.9 0 Calma 8 Nordeste 0 -- -- 91
2019-08-07 23:00:00 21.2 4 Este 10 Este 0 -- -- 91
2019-08-07 22:00:00 21.6 6 Sudeste 12 Sudeste 0 -- -- 88
2019-08-07 21:00:00 22.4 4 Sur 13 Sur 0 -- -- 84
2019-08-07 20:00:00 23.6 6 Sudeste 12 Sur 0 -- -- 79
2019-08-07 19:00:00 23.8 4 Sudeste 17 Sur 0 -- -- 77
2019-08-07 18:00:00 23.8 8 Sudeste 20 Sudeste 0 -- -- 76
2019-08-07 17:00:00 25.1 11 Sur 26 Sudeste 0 -- -- 71
2019-08-07 16:00:00 27 14 Sudeste 27 Sudeste 0 -- -- 65
2019-08-07 15:00:00 27.7 8 Sudeste 23 Sudeste 0 -- -- 60
2019-08-07 14:00:00 27.9 7 Sudeste 22 Sudeste 0 -- -- 59
2019-08-07 13:00:00 27.2 10 Sudoeste 21 Sur 0 -- -- 61
2019-08-07 12:00:00 26.2 6 Sudeste 17 Sudeste 0 -- -- 64
2019-08-07 11:00:00 23.8 6 Sudoeste 13 Sudoeste 0 -- -- 76
2019-08-07 10:00:00 23.2 5 Sudoeste 13 Oeste 0 -- -- 80
2019-08-07 09:00:00 21.5 2 Sudeste 6 Este 0 -- -- 87
2019-08-07 08:00:00 20.2 4 Norte 12 Nordeste 0 -- -- 93
2019-08-07 07:00:00 19.7 3 Norte 8 Norte 0 -- -- 91
2019-08-07 06:00:00 20.5 2 Este 8 Este 0 -- -- 91
2019-08-07 05:00:00 20.9 4 Este 14 Este 0 -- -- 92
2019-08-07 04:00:00 20.4 6 Este 15 Sudeste 0 -- -- 94
2019-08-07 03:00:00 20.4 4 Este 12 Sudeste 0 -- -- 90
2019-08-07 02:00:00 21.2 3 Noroeste 11 Oeste 0 -- -- 83
2019-08-07 01:00:00 22.5 3 Nordeste 8 Nordeste 0 -- -- 76
2019-08-07 00:00:00 22.9 4 Nordeste 7 Este 0 -- -- 77
2019-08-06 23:00:00 22.8 4 Nordeste 9 Nordeste 0 -- -- 79
2019-08-06 22:00:00 23.3 5 Este 12 Este 0 -- -- 78
2019-08-06 21:00:00 24.8 6 Sudeste 17 Sudeste 0 -- -- 72
2019-08-06 20:00:00 26.6 7 Sur 18 Sudeste 0 -- -- 63
2019-08-06 19:00:00 28.1 8 Sudeste 20 Sudeste 0 -- -- 56
2019-08-06 18:00:00 30.3 9 Sudeste 20 Sudeste 0 -- -- 49
2019-08-06 17:00:00 31.1 11 Sudoeste 21 Sudeste 0 -- -- 41
2019-08-06 16:00:00 31.3 8 Sur 21 Oeste 0 -- -- 41
2019-08-06 15:00:00 30.3 10 Sur 21 Sur 0 -- -- 45
2019-08-06 14:00:00 29.7 10 Sudeste 21 Sudeste 0 -- -- 46
2019-08-06 13:00:00 28.9 9 Sudeste 21 Sur 0 -- -- 42
2019-08-06 12:00:00 28.8 9 Sudeste 21 Sudeste 0 -- -- 41
2019-08-06 11:00:00 28.8 6 Sur 14 Sudeste 0 -- -- 43
2019-08-06 10:00:00 26.1 3 Sur 8 Sur 0 -- -- 52
2019-08-06 09:00:00 22.8 3 Sudoeste 7 Oeste 0 -- -- 58
2019-08-06 08:00:00 20.9 0 Calma 5 Oeste 0 -- -- 65
2019-08-06 07:00:00 19.8 3 Oeste 4 Sudoeste 0 -- -- 68
2019-08-06 06:00:00 20.3 0 Calma 6 Nordeste 0 -- -- 67
2019-08-06 05:00:00 21.8 3 Norte 9 Nordeste 0 -- -- 60
2019-08-06 04:00:00 22.2 2 Este 6 Norte 0 -- -- 61
2019-08-06 03:00:00 22.2 3 Nordeste 9 Nordeste 0 -- -- 59
2019-08-06 02:00:00 22.1 4 Nordeste 9 Nordeste 0 -- -- 53
2019-08-06 01:00:00 21.2 2 Este 5 Este 0 -- -- 60
2019-08-06 00:00:00 21.9 0 Calma 6 Norte 0 -- -- 56
2019-08-05 23:00:00 23 3 Nordeste 6 Nordeste 0 -- -- 51
2019-08-05 22:00:00 23.6 2 Este 9 Este 0 -- -- 53
2019-08-05 21:00:00 25.1 6 Este 19 Sudeste 0 -- -- 47
2019-08-05 20:00:00 26.3 10 Sudeste 20 Sur 0 -- -- 45
2019-08-05 19:00:00 27.7 11 Sudeste 26 Sudeste 0 -- -- 43
2019-08-05 18:00:00 29.3 11 Sudeste 28 Sudeste 0 -- -- 40
2019-08-05 17:00:00 30.3 10 Sudeste 24 Sur 0 -- -- 37
2019-08-05 16:00:00 31.1 12 Sudeste 26 Sur 0 -- -- 37
2019-08-05 15:00:00 31.4 10 Sur 22 Sur 0 -- -- 36
2019-08-05 14:00:00 30.8 14 Sudoeste 22 Sudoeste 0 -- -- 35
2019-08-05 13:00:00 30.9 8 Sur 19 Oeste 0 -- -- 34
2019-08-05 12:00:00 29.9 9 Sudoeste 19 Sudoeste 0 -- -- 35
2019-08-05 11:00:00 28.7 7 Sur 14 Oeste 0 -- -- 37
2019-08-05 10:00:00 27 4 Sudeste 7 Sudoeste 0 -- -- 41
2019-08-05 09:00:00 22.8 0 Calma 4 Norte 0 -- -- 58
2019-08-05 08:00:00 20.2 0 Calma 8 Norte 0 -- -- 61
2019-08-05 07:00:00 18.8 0 Calma 7 Norte 0 -- -- 62
2019-08-05 06:00:00 19.2 4 Norte 6 Norte 0 -- -- 61
2019-08-05 05:00:00 19.6 4 Norte 6 Norte 0 -- -- 60
2019-08-05 04:00:00 19.4 3 Norte 6 Este 0 -- -- 59
2019-08-05 03:00:00 19.7 0 Calma 5 Norte 0 -- -- 58
2019-08-05 02:00:00 20.2 3 Noroeste 5 Noroeste 0 -- -- 63
2019-08-05 01:00:00 20.6 0 Calma 5 Norte 0 -- -- 63
2019-08-05 00:00:00 21.5 2 Nordeste 6 Norte 0 -- -- 60
2019-08-04 23:00:00 22.4 4 Nordeste 7 Nordeste 0 -- -- 55
2019-08-04 22:00:00 23.3 3 Nordeste 6 Nordeste 0 -- -- 53
2019-08-04 21:00:00 25.2 4 Sudeste 15 Sudeste 0 -- -- 48
2019-08-04 20:00:00 26.5 6 Sudeste 18 Sudeste 0 -- -- 45
2019-08-04 19:00:00 26.2 11 Sudeste 24 Sudeste 0 -- -- 49
2019-08-04 18:00:00 27.1 10 Sudeste 27 Sudeste 0 -- -- 49
2019-08-04 17:00:00 28.5 15 Sudeste 28 Sudeste 0 -- -- 47
2019-08-04 16:00:00 29.8 12 Sur 28 Sudeste 0 -- -- 48
2019-08-04 15:00:00 30.9 13 Sudeste 28 Sudeste 0 -- -- 43
2019-08-04 14:00:00 31.1 10 Sudeste 21 Sudeste 0 -- -- 37
2019-08-04 13:00:00 30.3 10 Sudeste 19 Sudeste 0 -- -- 38
2019-08-04 12:00:00 30 6 Sur 15 Sudeste 0 -- -- 39
2019-08-04 11:00:00 28.1 5 Sudoeste 12 Sudoeste 0 -- -- 41
2019-08-04 10:00:00 25.9 4 Sur 7 Sudeste 0 -- -- 44
2019-08-04 09:00:00 23.8 0 Calma 3 Este 0 -- -- 57
2019-08-04 08:00:00 20.6 0 Calma 4 Nordeste 0 -- -- 64
2019-08-04 07:00:00 18.4 0 Calma 6 Norte 0 -- -- 69
2019-08-04 06:00:00 18.6 0 Calma 8 Norte 0 -- -- 69
2019-08-04 05:00:00 19 0 Calma 8 Noroeste 0 -- -- 66
2019-08-04 04:00:00 18.8 3 Noroeste 6 Noroeste 0 -- -- 67
2019-08-04 03:00:00 18.9 0 Calma 7 Norte 0 -- -- 70
2019-08-04 02:00:00 19.3 3 Nordeste 6 Norte 0 -- -- 68
2019-08-04 01:00:00 19.9 2 Oeste 9 Sudoeste 0 -- -- 68
2019-08-04 00:00:00 21.2 3 Nordeste 8 Nordeste 0 -- -- 64
2019-08-03 23:00:00 22.4 3 Sudeste 10 Este 0 -- -- 64
2019-08-03 22:00:00 23 6 Este 13 Este 0 -- -- 63
2019-08-03 21:00:00 24.4 7 Sudeste 17 Sur 0 -- -- 58
2019-08-03 20:00:00 26.3 8 Sur 23 Sur 0 -- -- 45
2019-08-03 19:00:00 27.7 11 Sudoeste 25 Sudoeste 0 -- -- 42
2019-08-03 18:00:00 28.9 11 Sudoeste 29 Sudeste 0 -- -- 40
2019-08-03 17:00:00 28.6 13 Sur 28 Sudeste 0 -- -- 45
2019-08-03 16:00:00 29.4 14 Sudeste 27 Sur 0 -- -- 44
2019-08-03 15:00:00 30.3 10 Sudoeste 28 Sudoeste 0 -- -- 37
2019-08-03 14:00:00 30.6 11 Sudoeste 23 Oeste 0 -- -- 36
2019-08-03 13:00:00 29.3 10 Sudoeste 20 Oeste 0 -- -- 38
2019-08-03 12:00:00 27.8 6 Oeste 17 Oeste 0 -- -- 42
2019-08-03 11:00:00 25.7 9 Sudoeste 23 Oeste 0 -- -- 44
2019-08-03 10:00:00 23.9 12 Oeste 21 Sudoeste 0 -- -- 46
2019-08-03 09:00:00 22.1 2 Sudeste 4 Este 0 -- -- 58
2019-08-03 08:00:00 18.9 0 Calma 6 Norte 0 -- -- 65
2019-08-03 07:00:00 16.6 0 Calma 5 Norte 0 -- -- 69
2019-08-03 06:00:00 16.9 0 Calma 5 Norte 0 -- -- 70
2019-08-03 05:00:00 17.5 0 Calma 7 Norte 0 -- -- 65
2019-08-03 04:00:00 18 4 Norte 5 Norte 0 -- -- 61
2019-08-03 03:00:00 18.1 0 Calma 8 Noroeste 0 -- -- 62
2019-08-03 02:00:00 18.3 5 Norte 6 Noroeste 0 -- -- 64
2019-08-03 01:00:00 19 3 Norte 6 Norte 0 -- -- 65
2019-08-03 00:00:00 19.8 3 Nordeste 6 Este 0 -- -- 65
2019-08-02 23:00:00 20.6 3 Nordeste 8 Sudeste 0 -- -- 64
2019-08-02 22:00:00 21.4 3 Sudeste 15 Este 0 -- -- 61
2019-08-02 21:00:00 22.6 10 Sudeste 18 Sudeste 0 -- -- 56
2019-08-02 20:00:00 23.8 9 Sudeste 25 Sudeste 0 -- -- 55
2019-08-02 19:00:00 24.9 13 Sudeste 27 Sur 0 -- -- 50
2019-08-02 18:00:00 26 14 Sur 34 Sur 0 -- -- 46
2019-08-02 17:00:00 26.8 14 Sudeste 31 Sur 0 -- -- 45
2019-08-02 16:00:00 28.5 15 Sur 32 Sudoeste 0 -- -- 42
2019-08-02 15:00:00 30.2 16 Oeste 30 Oeste 0 -- -- 38
2019-08-02 14:00:00 29 10 Sudoeste 23 Oeste 0 -- -- 39
2019-08-02 13:00:00 27.7 10 Sudoeste 21 Sudoeste 0 -- -- 40
2019-08-02 12:00:00 26.3 10 Oeste 21 Sudoeste 0 -- -- 40
2019-08-02 11:00:00 24.8 8 Oeste 18 Sudoeste 0 -- -- 41
2019-08-02 10:00:00 23.6 5 Oeste 15 Noroeste 0 -- -- 48
2019-08-02 09:00:00 21.4 8 Oeste 13 Sudoeste 0 -- -- 49
2019-08-02 08:00:00 18.7 0 Calma 6 Norte 0 -- -- 60
2019-08-02 07:00:00 17.2 0 Calma 10 Noroeste 0 -- -- 61
2019-08-02 06:00:00 17.1 3 Noroeste 7 Norte 0 -- -- 63
2019-08-02 05:00:00 17.8 0 Calma 9 Nordeste 0 -- -- 60
2019-08-02 04:00:00 18.6 3 Este 13 Oeste 0 -- -- 56
2019-08-02 03:00:00 19.1 5 Nordeste 14 Noroeste 0 -- -- 54
2019-08-02 02:00:00 18.6 3 Norte 6 Noroeste 0 -- -- 56
2019-08-02 01:00:00 19.7 4 Nordeste 8 Nordeste 0 -- -- 50
2019-08-02 00:00:00 20.3 5 Nordeste 10 Este 0 -- -- 47
2019-08-01 23:00:00 20.4 3 Oeste 8 Oeste 0 -- -- 49
2019-08-01 22:00:00 21.5 2 Este 9 Sudeste 0 -- -- 48
2019-08-01 21:00:00 23 5 Sudeste 15 Sudeste 0 -- -- 42
2019-08-01 20:00:00 24.5 9 Sudeste 17 Sur 0 -- -- 39
2019-08-01 19:00:00 25.6 9 Sur 26 Sudeste 0 -- -- 39
2019-08-01 18:00:00 27 13 Sudeste 27 Sur 0 -- -- 35
2019-08-01 17:00:00 27.8 12 Sur 24 Sudoeste 0 -- -- 36
2019-08-01 16:00:00 28.7 10 Sur 21 Sur 0 -- -- 37
2019-08-01 15:00:00 28.6 9 Sur 23 Sur 0 -- -- 35
2019-08-01 14:00:00 28.3 11 Sudeste 23 Sudeste 0 -- -- 34
2019-08-01 13:00:00 28.1 9 Sur 18 Sudeste 0 -- -- 35
2019-08-01 12:00:00 27 7 Sur 15 Oeste 0 -- -- 37
2019-08-01 11:00:00 26.1 5 Sur 15 Sudeste 0 -- -- 35
2019-08-01 10:00:00 24 7 Sur 15 Sur 0 -- -- 44
2019-08-01 09:00:00 21.2 4 Sudeste 11 Nordeste 0 -- -- 64
2019-08-01 08:00:00 19.2 3 Nordeste 7 Nordeste 0 -- -- 68
2019-08-01 07:00:00 18.1 0 Calma 13 Norte 0 -- -- 81
2019-08-01 06:00:00 18.6 6 Norte 18 Norte 0 -- -- 79
2019-08-01 05:00:00 18.3 4 Norte 10 Norte 0 -- -- 83
2019-08-01 04:00:00 17.8 3 Nordeste 6 Nordeste 0 -- -- 86
2019-08-01 03:00:00 18 0 Calma 8 Nordeste 0 -- -- 86
2019-08-01 02:00:00 18.5 4 Este 10 Norte 0 -- -- 85
2019-08-01 01:00:00 18.6 4 Noroeste 11 Oeste 0 -- -- 85
2019-08-01 00:00:00 18.7 5 Este 9 Este 0 -- -- 84
2019-07-31 23:00:00 19 0 Calma 7 Este 0 -- -- 83
2019-07-31 22:00:00 19.5 5 Este 15 Sur 0 -- -- 82
2019-07-31 21:00:00 20.9 6 Sudeste 14 Sur 0 -- -- 76
2019-07-31 20:00:00 22.6 9 Sudeste 15 Sudeste 0 -- -- 71
2019-07-31 19:00:00 24 8 Sur 23 Sudeste 0 -- -- 66
2019-07-31 18:00:00 24.4 11 Sudeste 23 Este 0 -- -- 65
2019-07-31 17:00:00 24.7 10 Sur 24 Sudoeste 0 -- -- 63
2019-07-31 16:00:00 25.1 12 Sudeste 29 Sudeste 0 -- -- 61
2019-07-31 15:00:00 25.4 13 Sudeste 24 Sudeste 0 -- -- 60
2019-07-31 14:00:00 25.5 10 Oeste 23 Oeste 0 -- -- 49
2019-07-31 13:00:00 24.8 10 Oeste 21 Oeste 0 -- -- 56
2019-07-31 12:00:00 22.7 7 Sudoeste 14 Oeste 0 -- -- 64
2019-07-31 11:00:00 19.7 4 Sur 10 Oeste 0 -- -- 62
2019-07-31 10:00:00 18.7 6 Oeste 13 Oeste 0 -- -- 60
2019-07-31 09:00:00 18.5 6 Sudoeste 12 Oeste 0 -- -- 60
2019-07-31 08:00:00 17 2 Sur 10 Noroeste 0 -- -- 67
2019-07-31 07:00:00 16.2 6 Noroeste 10 Noroeste 0 -- -- 66
2019-07-31 06:00:00 16.7 6 Noroeste 11 Noroeste 0 -- -- 78
2019-07-31 05:00:00 18 4 Noroeste 10 Oeste 0 -- -- 93
2019-07-31 04:00:00 18.6 4 Oeste 9 Oeste 0 -- -- 94
2019-07-31 03:00:00 18.7 2 Sudoeste 8 Oeste 0 -- -- 93
2019-07-31 02:00:00 19 2 Sur 8 Sudeste 0 -- -- 92
2019-07-31 01:00:00 19.1 3 Sudoeste 9 Sudoeste 0 -- -- 93
2019-07-31 00:00:00 19.1 4 Sudeste 12 Sudeste 0 -- -- 93
2019-07-30 23:00:00 19.5 4 Sudeste 15 Sur 0 -- -- 92
2019-07-30 22:00:00 20 6 Sudeste 15 Sudeste 0 -- -- 90
2019-07-30 21:00:00 20.5 8 Sudeste 20 Sur 0 -- -- 86
2019-07-30 20:00:00 21.6 11 Sur 22 Sudeste 0 -- -- 82
2019-07-30 19:00:00 22.9 12 Sudeste 27 Sudeste 0 -- -- 77
2019-07-30 18:00:00 24.2 12 Sudeste 29 Sudeste 0 -- -- 72
2019-07-30 17:00:00 24.4 11 Sur 28 Sur 0 -- -- 73
2019-07-30 16:00:00 24.8 9 Sur 25 Sudoeste 0 -- -- 70
2019-07-30 15:00:00 24.9 12 Sudoeste 24 Sudoeste 0 -- -- 66
2019-07-30 14:00:00 24.6 11 Sudoeste 28 Sudoeste 0 -- -- 62
2019-07-30 13:00:00 23.7 12 Sudoeste 23 Sudoeste 0 -- -- 68
2019-07-30 12:00:00 23.4 11 Oeste 21 Sudoeste 0 -- -- 70
2019-07-30 11:00:00 22.7 7 Sudoeste 17 Oeste 0 -- -- 73
2019-07-30 10:00:00 22.8 6 Sudoeste 15 Sur 0 -- -- 72
2019-07-30 09:00:00 21.5 6 Sudeste 10 Sudeste 0 -- -- 80
2019-07-30 08:00:00 20.4 5 Oeste 12 Oeste 0 -- -- 79
2019-07-30 07:00:00 20.1 3 Este 11 Este 0 -- -- 68
2019-07-30 06:00:00 19.8 4 Nordeste 7 Nordeste 0 -- -- 70
2019-07-30 05:00:00 20.3 3 Nordeste 11 Nordeste 0 -- -- 74
2019-07-30 04:00:00 20 6 Nordeste 10 Nordeste 0 -- -- 69
2019-07-30 03:00:00 19.7 5 Nordeste 9 Nordeste 0 -- -- 65
2019-07-30 02:00:00 20.1 5 Nordeste 8 Nordeste 0 -- -- 71
2019-07-30 01:00:00 20.1 4 Nordeste 6 Nordeste 0 -- -- 80
2019-07-30 00:00:00 20.4 3 Nordeste 7 Nordeste 0 -- -- 80
2019-07-29 23:00:00 20.9 0 Calma 10 Este 0 -- -- 83
2019-07-29 22:00:00 21.7 5 Este 13 Sur 0 -- -- 88
2019-07-29 21:00:00 23 9 Sudeste 18 Sudeste 0 -- -- 82
2019-07-29 20:00:00 24.3 10 Sudeste 22 Sudeste 0 -- -- 75
2019-07-29 19:00:00 26.2 10 Sur 28 Sur 0 -- -- 65
2019-07-29 18:00:00 27.8 12 Sur 28 Sudoeste 0 -- -- 56
2019-07-29 17:00:00 28.8 15 Sudoeste 32 Sudoeste 0 -- -- 36
2019-07-29 16:00:00 28.6 13 Sudoeste 33 Sudoeste 0 -- -- 37
2019-07-29 15:00:00 28.1 15 Sudoeste 30 Oeste 0 -- -- 36
2019-07-29 14:00:00 27.7 15 Oeste 29 Oeste 0 -- -- 36
2019-07-29 13:00:00 26 16 Sudoeste 30 Oeste 0 -- -- 39
2019-07-29 12:00:00 24.4 16 Sudoeste 28 Oeste 0 -- -- 42
2019-07-29 11:00:00 23.1 8 Oeste 16 Noroeste 0 -- -- 48
2019-07-29 10:00:00 21.5 6 Oeste 12 Sudoeste 0 -- -- 60
2019-07-29 09:00:00 19.2 5 Oeste 10 Oeste 0 -- -- 75
2019-07-29 08:00:00 16.7 2 Oeste 5 Oeste 0 -- -- 96
2019-07-29 07:00:00 14.1 0 Calma 2 Nordeste 0 -- -- 95
2019-07-29 06:00:00 14.5 0 Calma 4 Norte 0 -- -- 94
2019-07-29 05:00:00 14.8 2 Norte 5 Norte 0 -- -- 93
2019-07-29 04:00:00 15.2 3 Norte 5 Norte 0 -- -- 92
2019-07-29 03:00:00 15.5 0 Calma 4 Norte 0 -- -- 90
2019-07-29 02:00:00 16.1 2 Nordeste 7 Este 0 -- -- 87
2019-07-29 01:00:00 16.8 4 Nordeste 9 Nordeste 0 -- -- 84
2019-07-29 00:00:00 16.9 5 Este 10 Este 0 -- -- 82
2019-07-28 23:00:00 17.4 4 Nordeste 13 Este 0 -- -- 78
2019-07-28 22:00:00 18.2 7 Este 21 Este 0 -- -- 74
2019-07-28 21:00:00 19.8 10 Sur 23 Sur 0 -- -- 67
2019-07-28 20:00:00 21.4 8 Sur 26 Sur 0 -- -- 62
2019-07-28 19:00:00 22.6 11 Sur 27 Sudeste 0 -- -- 53
2019-07-28 18:00:00 23.4 12 Sudeste 27 Este 0 -- -- 52
2019-07-28 17:00:00 24.6 11 Sur 25 Sudeste 0 -- -- 51
2019-07-28 16:00:00 25.9 12 Oeste 24 Oeste 0 -- -- 30
2019-07-28 15:00:00 24.9 10 Sudoeste 26 Oeste 0 -- -- 28
2019-07-28 14:00:00 24 10 Sudoeste 24 Sudoeste 0 -- -- 35
2019-07-28 13:00:00 23.4 8 Oeste 22 Oeste 0 -- -- 44
2019-07-28 12:00:00 21.8 9 Oeste 19 Oeste 0 -- -- 49
2019-07-28 11:00:00 21.5 7 Oeste 20 Sudoeste 0 -- -- 51
2019-07-28 10:00:00 17.9 4 Sur 14 Oeste 0 -- -- 64
2019-07-28 09:00:00 14.9 9 Oeste 15 Oeste 0 -- -- 74
2019-07-28 08:00:00 13.4 4 Oeste 8 Oeste 0 -- -- 81
2019-07-28 07:00:00 12.1 2 Sudoeste 14 Oeste 0 -- -- 85
2019-07-28 06:00:00 12.5 3 Noroeste 10 Oeste 0 -- -- 85
2019-07-28 05:00:00 13 3 Norte 11 Oeste 0 -- -- 83
2019-07-28 04:00:00 13.6 5 Noroeste 8 Sudoeste 0 -- -- 83
2019-07-28 03:00:00 14.7 4 Noroeste 9 Noroeste 0 -- -- 78
2019-07-28 02:00:00 15.6 5 Oeste 15 Oeste 0 -- -- 76
2019-07-28 01:00:00 16.7 6 Oeste 15 Oeste 0 -- -- 79
2019-07-28 00:00:00 17.6 5 Oeste 10 Sudoeste 0 -- -- 88
2019-07-27 23:00:00 18.4 6 Sudoeste 10 Este 0 -- -- 86
2019-07-26 12:00:00 28.7 8 Sur 18 Sudoeste 0 -- -- 36
2019-07-26 11:00:00 26.7 5 Sur 14 Sudoeste 0 -- -- 42
2019-07-26 10:00:00 25.8 3 Este 9 Este 0 -- -- 47
2019-07-26 09:00:00 22.6 2 Este 5 Este 0 -- -- 62
2019-07-26 08:00:00 20.9 0 Calma 3 Norte 0 -- -- 69
2019-07-26 07:00:00 18.8 2 Norte 4 Norte 0 -- -- 70
2019-07-26 06:00:00 18.8 3 Norte 7 Norte 0 -- -- 69
2019-07-26 05:00:00 19.6 2 Norte 7 Norte 0 -- -- 68
2019-07-26 04:00:00 19.2 0 Calma 4 Noroeste 0 -- -- 72
2019-07-26 03:00:00 19.8 0 Calma 5 Norte 0 -- -- 68
2019-07-26 02:00:00 20 3 Norte 6 Nordeste 0 -- -- 68
2019-07-26 01:00:00 20.7 3 Nordeste 5 Nordeste 0 -- -- 69
2019-07-26 00:00:00 20.9 4 Norte 6 Norte 0 -- -- 72
2019-07-25 23:00:00 21.9 3 Nordeste 5 Nordeste 0 -- -- 77
2019-07-25 22:00:00 23.6 3 Este 10 Sudeste 0 -- -- 74
2019-07-25 21:00:00 25 6 Sudeste 13 Sudeste 0 -- -- 68
2019-07-25 20:00:00 26.7 8 Sudoeste 20 Sur 0 -- -- 63
2019-07-25 19:00:00 27.6 11 Sur 22 Sudeste 0 -- -- 59
2019-07-25 18:00:00 28.8 11 Sudeste 27 Sudeste 0 -- -- 57
2019-07-25 17:00:00 29.8 12 Sudeste 26 Este 0 -- -- 53
2019-07-25 16:00:00 30.8 13 Sudeste 26 Sudeste 0 -- -- 46
2019-07-25 15:00:00 30.9 11 Sudeste 26 Sudeste 0 -- -- 43
2019-07-25 14:00:00 31.5 10 Sur 22 Sudeste 0 -- -- 38
2019-07-25 13:00:00 30.7 9 Sudeste 19 Sur 0 -- -- 36
2019-07-25 12:00:00 30.4 7 Sudeste 17 Sudeste 0 -- -- 35
2019-07-25 11:00:00 28.9 5 Sudeste 12 Este 0 -- -- 36
2019-07-25 10:00:00 27.4 4 Sudeste 10 Sur 0 -- -- 37
2019-07-25 09:00:00 25.5 3 Este 6 Este 0 -- -- 44
2019-07-25 08:00:00 21.9 0 Calma 5 Nordeste 0 -- -- 55
2019-07-25 07:00:00 19 0 Calma 5 Norte 0 -- -- 62
2019-07-25 06:00:00 19.8 0 Calma 5 Norte 0 -- -- 56
2019-07-25 05:00:00 20.2 0 Calma 6 Norte 0 -- -- 55
2019-07-25 04:00:00 20.4 0 Calma 5 Norte 0 -- -- 59
2019-07-25 03:00:00 20.8 0 Calma 4 Norte 0 -- -- 53
2019-07-25 02:00:00 21.2 0 Calma 6 Norte 0 -- -- 60
2019-07-25 01:00:00 21.5 0 Calma 4 Norte 0 -- -- 63
2019-07-25 00:00:00 22.4 3 Norte 6 Nordeste 0 -- -- 62
2019-07-24 23:00:00 23.5 3 Nordeste 6 Este 0 -- -- 62
2019-07-24 22:00:00 24.6 4 Este 11 Este 0 -- -- 61
2019-07-24 21:00:00 25.8 5 Este 14 Sudeste 0 -- -- 57
2019-07-24 20:00:00 27.2 8 Sudeste 18 Sudeste 0 -- -- 53
2019-07-24 19:00:00 28.4 10 Sudeste 22 Sudeste 0 -- -- 51
2019-07-24 18:00:00 29.7 10 Sudeste 23 Sur 0 -- -- 48
2019-07-24 17:00:00 30.6 11 Sudeste 22 Sudeste 0 -- -- 48
2019-07-24 16:00:00 31.7 10 Sur 23 Sudeste 0 -- -- 47
2019-07-24 15:00:00 32.8 7 Sudeste 21 Sudeste 0 -- -- 34
2019-07-24 14:00:00 32.2 7 Sudeste 18 Sudeste 0 -- -- 32
2019-07-24 13:00:00 31.2 9 Sur 18 Sudeste 0 -- -- 33
2019-07-24 12:00:00 30.3 8 Sudeste 17 Este 0 -- -- 34
2019-07-24 11:00:00 28.9 6 Sudeste 15 Este 0 -- -- 35
2019-07-24 10:00:00 26.5 5 Sur 11 Sudeste 0 -- -- 37
2019-07-24 09:00:00 24 5 Este 8 Este 0 -- -- 47
2019-07-24 08:00:00 21.7 2 Sudoeste 6 Nordeste 0 -- -- 52
2019-07-24 07:00:00 20.7 2 Norte 6 Nordeste 0 -- -- 52
2019-07-24 06:00:00 20.6 0 Calma 3 Norte 0 -- -- 50
2019-07-24 05:00:00 20.8 0 Calma 4 Norte 0 -- -- 49
2019-07-24 04:00:00 21.1 2 Norte 5 Norte 0 -- -- 49
2019-07-24 03:00:00 21.6 0 Calma 8 Norte 0 -- -- 48
2019-07-24 02:00:00 21.5 0 Calma 5 Norte 0 -- -- 53
2019-07-24 01:00:00 22 3 Noroeste 5 Norte 0 -- -- 52
2019-07-24 00:00:00 22 0 Calma 5 Norte 0 -- -- 58
2019-07-23 23:00:00 23.3 3 Nordeste 6 Nordeste 0 -- -- 65
2019-07-23 22:00:00 24.9 4 Este 13 Este 0 -- -- 61
2019-07-23 21:00:00 26.4 8 Sudeste 18 Sudeste 0 -- -- 57
2019-07-23 20:00:00 28.1 10 Sudeste 22 Sudeste 0 -- -- 49
2019-07-23 19:00:00 29.5 12 Sudeste 27 Este 0 -- -- 45
2019-07-23 18:00:00 30.5 11 Sur 26 Sur 0 -- -- 41
2019-07-23 17:00:00 31.7 14 Sur 25 Sudeste 0 -- -- 43
2019-07-23 16:00:00 33 12 Sur 24 Sudeste 0 -- -- 40
2019-07-23 15:00:00 33.4 12 Sudeste 24 Sudeste 0 -- -- 37
2019-07-23 14:00:00 34.1 8 Sur 21 Oeste 0 -- -- 31
2019-07-23 13:00:00 33.5 9 Sudoeste 23 Sudoeste 0 -- -- 28
2019-07-23 12:00:00 32.9 8 Oeste 19 Sudoeste 0 -- -- 28
2019-07-23 11:00:00 31.3 3 Sur 6 Sudoeste 0 -- -- 34
2019-07-23 10:00:00 28.7 3 Sudeste 5 Este 0 -- -- 38
2019-07-23 09:00:00 26.5 2 Este 4 Sudeste 0 -- -- 49
2019-07-23 08:00:00 22.8 0 Calma 6 Norte 0 -- -- 54
2019-07-23 07:00:00 20.6 0 Calma 4 Norte 0 -- -- 57
2019-07-23 06:00:00 20.9 0 Calma 9 Norte 0 -- -- 50
2019-07-23 05:00:00 21 0 Calma 6 Noroeste 0 -- -- 46
2019-07-23 04:00:00 22.1 5 Norte 10 Norte 0 -- -- 44
2019-07-23 03:00:00 21.7 5 Norte 9 Noroeste 0 -- -- 45
2019-07-23 02:00:00 21.4 4 Noroeste 9 Norte 0 -- -- 47
2019-07-23 01:00:00 21.3 0 Calma 3 Noroeste 0 -- -- 53
2019-07-23 00:00:00 21.6 0 Calma 6 Nordeste 0 -- -- 56
2019-07-22 23:00:00 22.4 4 Norte 6 Norte 0 -- -- 60
2019-07-22 22:00:00 23.8 3 Nordeste 9 Este 0 -- -- 56
2019-07-22 21:00:00 25.7 5 Sudeste 15 Sudeste 0 -- -- 52
2019-07-22 20:00:00 27 9 Sudeste 20 Sudeste 0 -- -- 49
2019-07-22 19:00:00 27.9 13 Sudeste 22 Sudeste 0 -- -- 45
2019-07-22 18:00:00 29.8 10 Sudeste 23 Sudeste 0 -- -- 42
2019-07-22 17:00:00 31.1 13 Sudeste 24 Sur 0 -- -- 39
2019-07-22 16:00:00 32 14 Sudeste 28 Sudeste 0 -- -- 39
2019-07-22 15:00:00 32.9 10 Sur 23 Sudeste 0 -- -- 36
2019-07-22 14:00:00 32.6 9 Sur 20 Sur 0 -- -- 34
2019-07-22 13:00:00 32.2 9 Sudeste 17 Sudoeste 0 -- -- 37
2019-07-22 12:00:00 31 4 Sudoeste 14 Sudoeste 0 -- -- 31
2019-07-22 11:00:00 30 3 Sudeste 8 Sudeste 0 -- -- 35
2019-07-22 10:00:00 27.8 2 Sudeste 5 Sudeste 0 -- -- 42
2019-07-22 09:00:00 24.9 0 Calma 3 Nordeste 0 -- -- 57
2019-07-22 08:00:00 21.5 0 Calma 6 Norte 0 -- -- 62
2019-07-22 07:00:00 19.7 3 Norte 6 Norte 0 -- -- 58
2019-07-22 06:00:00 19.9 3 Oeste 5 Norte 0 -- -- 57
2019-07-22 05:00:00 19.7 0 Calma 6 Norte 0 -- -- 56
2019-07-22 04:00:00 20.4 3 Norte 7 Norte 0 -- -- 55
2019-07-22 03:00:00 20.6 4 Norte 8 Norte 0 -- -- 56
2019-07-22 02:00:00 21.3 0 Calma 8 Noroeste 0 -- -- 56
2019-07-22 01:00:00 21.1 4 Norte 6 Norte 0 -- -- 54
2019-07-22 00:00:00 21.8 4 Norte 7 Norte 0 -- -- 60
2019-07-21 23:00:00 22.2 4 Nordeste 7 Nordeste 0 -- -- 59
2019-07-21 22:00:00 23.2 4 Nordeste 10 Este 0 -- -- 56
2019-07-21 21:00:00 24.5 5 Este 20 Sudeste 0 -- -- 56
2019-07-21 20:00:00 25.7 9 Sudeste 18 Sudeste 0 -- -- 51
2019-07-21 19:00:00 26.8 9 Sudeste 21 Sudeste 0 -- -- 50
2019-07-21 18:00:00 27.5 11 Sudeste 23 Sudeste 0 -- -- 50
2019-07-21 17:00:00 28.6 12 Sudeste 24 Sudeste 0 -- -- 51
2019-07-21 16:00:00 29.7 12 Sudeste 24 Sudeste 0 -- -- 51
2019-07-21 15:00:00 30.1 8 Sur 24 Sudoeste 0 -- -- 54
2019-07-21 14:00:00 30.4 7 Sudeste 19 Sudoeste 0 -- -- 51
2019-07-21 13:00:00 29.4 8 Sudoeste 19 Oeste 0 -- -- 45
2019-07-21 12:00:00 28.7 8 Sur 17 Sudeste 0 -- -- 51
2019-07-21 11:00:00 28.1 5 Sur 12 Sudoeste 0 -- -- 46
2019-07-21 10:00:00 26.5 4 Sudeste 6 Este 0 -- -- 49
2019-07-21 09:00:00 23.8 0 Calma 3 Este 0 -- -- 63
2019-07-21 08:00:00 20.6 0 Calma 5 Norte 0 -- -- 75
2019-07-21 07:00:00 19.3 4 Norte 7 Este 0 -- -- 76
2019-07-21 06:00:00 19.7 4 Nordeste 7 Nordeste 0 -- -- 74
2019-07-21 05:00:00 19 3 Norte 5 Norte 0 -- -- 71
2019-07-21 04:00:00 18.8 4 Norte 6 Norte 0 -- -- 67
2019-07-21 03:00:00 18.9 3 Nordeste 5 Nordeste 0 -- -- 67
2019-07-21 02:00:00 18.7 2 Norte 6 Norte 0 -- -- 71
2019-07-21 01:00:00 19.7 3 Norte 6 Norte 0 -- -- 69
2019-07-21 00:00:00 20.2 4 Nordeste 7 Nordeste 0 -- -- 72
2019-07-20 23:00:00 20.8 3 Nordeste 8 Este 0 -- -- 77
2019-07-20 22:00:00 21.8 6 Este 12 Sudeste 0 -- -- 75
2019-07-20 21:00:00 22.9 5 Sudeste 16 Sudeste 0 -- -- 69
2019-07-20 20:00:00 24.3 9 Sudeste 21 Sudeste 0 -- -- 63
2019-07-20 19:00:00 25.2 9 Sur 23 Sudeste 0 -- -- 63
2019-07-20 18:00:00 26 13 Sudeste 27 Sudeste 0 -- -- 62
2019-07-20 17:00:00 27.2 16 Sudeste 30 Sudeste 0 -- -- 59
2019-07-20 16:00:00 28.9 11 Sur 25 Sudeste 0 -- -- 55
2019-07-20 15:00:00 30.1 11 Sur 22 Sudeste 0 -- -- 46
2019-07-20 14:00:00 29.5 11 Oeste 25 Oeste 0 -- -- 43
2019-07-20 13:00:00 28.1 10 Oeste 20 Oeste 0 -- -- 46
2019-07-20 12:00:00 26.3 9 Oeste 21 Oeste 0 -- -- 50
2019-07-20 11:00:00 24.7 5 Oeste 13 Oeste 0 -- -- 57
2019-07-20 10:00:00 22.8 4 Oeste 11 Oeste 0 -- -- 61
2019-07-20 09:00:00 20.6 0 Calma 4 Sur 0 -- -- 68
2019-07-20 08:00:00 17.8 0 Calma 4 Nordeste 0 -- -- 79
2019-07-20 07:00:00 16.1 4 Norte 6 Norte 0 -- -- 82
2019-07-20 06:00:00 16 2 Norte 4 Norte 0 -- -- 83
2019-07-20 05:00:00 16.3 0 Calma 5 Norte 0 -- -- 81
2019-07-20 04:00:00 16.4 0 Calma 5 Norte 0 -- -- 82
2019-07-20 03:00:00 16.9 0 Calma 5 Noroeste 0 -- -- 81
2019-07-20 02:00:00 17.6 5 Noroeste 7 Noroeste 0 -- -- 77
2019-07-20 01:00:00 18.6 0 Calma 5 Norte 0 -- -- 91
2019-07-20 00:00:00 19.3 0 Calma 5 Norte 0 -- -- 90
2019-07-19 23:00:00 19.9 3 Este 6 Este 0 -- -- 89
2019-07-19 22:00:00 20.8 4 Este 9 Sudeste 0 -- -- 85
2019-07-19 21:00:00 21.5 5 Sudeste 16 Sudeste 0 -- -- 83
2019-07-19 20:00:00 22.5 10 Sudeste 18 Sudeste 0 -- -- 80
2019-07-19 19:00:00 23.4 10 Sudeste 21 Sudeste 0 -- -- 76
2019-07-19 18:00:00 23.8 9 Sur 27 Sudeste 0 -- -- 74
2019-07-19 17:00:00 24.5 13 Sudeste 23 Sudeste 0 -- -- 71
2019-07-19 16:00:00 24.9 12 Sur 24 Sudeste 0 -- -- 68
2019-07-19 15:00:00 24.7 11 Sur 23 Sudeste 0 -- -- 68
2019-07-19 14:00:00 25.3 6 Sur 23 Sudoeste 0 -- -- 61
2019-07-19 13:00:00 24.7 6 Sur 19 Sudeste 0 -- -- 62
2019-07-19 12:00:00 23.7 6 Sur 18 Este 0 -- -- 66
2019-07-19 11:00:00 23.5 7 Sur 15 Sudeste 0 -- -- 68
2019-07-19 10:00:00 21.6 6 Sudeste 12 Sur 0 -- -- 72
2019-07-19 09:00:00 20.1 3 Sudeste 5 Sudeste 0 -- -- 83
2019-07-19 08:00:00 17.4 0 Calma 4 Este 0 -- -- 96
2019-07-19 07:00:00 15.9 0 Calma 5 Noroeste 0 -- -- 96
2019-07-19 06:00:00 16.3 0 Calma 4 Norte 0 -- -- 96
2019-07-19 05:00:00 16.6 2 Norte 4 Norte 0 -- -- 95
2019-07-19 04:00:00 17 2 Norte 5 Norte 0 -- -- 94
2019-07-19 03:00:00 17.6 2 Norte 6 Norte 0 -- -- 94
2019-07-19 02:00:00 17.9 3 Nordeste 6 Nordeste 0 -- -- 92
2019-07-19 01:00:00 18.2 3 Nordeste 9 Nordeste 0 -- -- 91
2019-07-19 00:00:00 18.5 5 Nordeste 12 Este 0 -- -- 89
2019-07-18 23:00:00 19.2 6 Este 18 Este 0 -- -- 87
2019-07-18 22:00:00 19.9 8 Sudeste 17 Sudeste 0 -- -- 86
2019-07-18 21:00:00 20.4 9 Sudeste 23 Este 0 -- -- 84
2019-07-18 20:00:00 22 9 Sudeste 25 Sudeste 0 -- -- 79
2019-07-18 19:00:00 23.1 11 Sudeste 29 Sudeste 0 -- -- 74
2019-07-18 18:00:00 24.4 11 Sudeste 23 Sur 0 -- -- 69
2019-07-18 17:00:00 24.7 12 Sudeste 30 Sudeste 0 -- -- 64
2019-07-18 16:00:00 25 15 Sudeste 30 Sudeste 0 -- -- 65
2019-07-18 15:00:00 25.9 18 Oeste 30 Oeste 0 -- -- 58
2019-07-18 14:00:00 25.1 12 Sudoeste 26 Sudoeste 0 -- -- 64
2019-07-18 13:00:00 24.2 7 Sudoeste 18 Sur 0 -- -- 67
2019-07-18 12:00:00 22.1 5 Sudoeste 18 Oeste 0 -- -- 73
2019-07-18 11:00:00 19.7 12 Oeste 21 Oeste 0 -- -- 78
2019-07-18 10:00:00 19.7 9 Oeste 16 Oeste 0 -- -- 78
2019-07-18 09:00:00 17.6 0 Calma 7 Oeste 0 -- -- 91
2019-07-18 08:00:00 15.9 0 Calma 8 Oeste 0 -- -- 94
2019-07-18 07:00:00 15.1 2 Noroeste 7 Noroeste 0 -- -- 93
2019-07-18 06:00:00 14.8 0 Calma 6 Noroeste 0 -- -- 93
2019-07-18 05:00:00 14.9 0 Calma 6 Oeste 0 -- -- 94
2019-07-18 04:00:00 14.8 0 Calma 6 Norte 0 -- -- 97
2019-07-18 03:00:00 14.7 2 Norte 6 Norte 0 -- -- 98
2019-07-18 02:00:00 14.4 0 Calma 9 Norte 0 -- -- 97
2019-07-18 01:00:00 14.5 4 Noroeste 7 Norte 0 -- -- 97
2019-07-18 00:00:00 14.6 3 Nordeste 8 Norte 0 -- -- 96